createdAt,value
2022-10-29T00:07:25.968Z,10.00
2022-10-29T00:27:28.750Z,9.90
2022-10-29T00:47:31.164Z,9.89
2022-10-29T01:07:33.909Z,9.86
2022-10-29T01:27:36.662Z,9.79
2022-10-29T01:47:39.403Z,9.75
2022-10-29T02:07:42.048Z,9.68
2022-10-29T02:27:44.456Z,9.68
2022-10-29T02:47:47.091Z,9.68
2022-10-29T03:07:49.799Z,9.72
2022-10-29T03:27:52.461Z,9.64
2022-10-29T03:47:55.582Z,9.71
2022-10-29T04:07:58.172Z,9.81
2022-10-29T04:48:23.464Z,10.46
2022-10-29T05:08:26.241Z,11.04
2022-10-29T05:28:28.907Z,11.06
2022-10-29T05:48:31.362Z,10.94
2022-10-29T06:08:34.069Z,10.94
2022-10-29T06:28:36.918Z,11.22
2022-10-29T06:48:39.536Z,11.74
2022-10-29T07:08:42.172Z,12.58
2022-10-29T07:28:44.893Z,13.17
2022-10-29T07:48:48.111Z,13.15
2022-10-29T08:08:50.691Z,13.95
2022-10-29T08:28:53.393Z,15.08
2022-10-29T08:48:56.017Z,15.46
2022-10-29T09:08:58.709Z,16.39
2022-10-29T09:29:01.404Z,17.12
2022-10-29T09:49:04.188Z,17.96
2022-10-29T10:09:06.812Z,18.32
2022-10-29T10:29:09.445Z,18.01
2022-10-29T10:49:12.107Z,18.45
2022-10-29T11:09:14.771Z,19.57
2022-10-29T11:29:17.278Z,19.24
2022-10-29T11:49:19.921Z,18.95
2022-10-29T12:09:22.612Z,19.47
2022-10-29T12:29:25.321Z,19.19
2022-10-29T12:49:27.874Z,19.15
2022-10-29T13:09:30.923Z,18.89
2022-10-29T13:29:33.763Z,18.84
2022-10-29T13:49:36.252Z,18.59
2022-10-29T14:09:39.170Z,18.89
2022-10-29T14:29:41.704Z,18.37
2022-10-29T14:49:44.382Z,17.74
2022-10-29T15:09:46.846Z,17.11
2022-10-29T15:29:49.438Z,16.61
2022-10-29T15:49:52.013Z,16.15
2022-10-29T16:09:54.420Z,15.51
2022-10-29T16:29:57.188Z,15.02
2022-10-29T16:49:59.694Z,14.43
2022-10-29T17:10:02.354Z,14.29
2022-10-29T17:30:05.099Z,14.17
2022-10-29T17:50:07.641Z,13.92
2022-10-29T18:10:10.326Z,13.48
2022-10-29T18:30:13.029Z,13.23
2022-10-29T18:50:16.040Z,13.08
2022-10-29T19:10:18.634Z,12.74
2022-10-29T19:30:21.065Z,12.47
2022-10-29T20:10:26.449Z,12.82
2022-10-29T20:30:29.277Z,12.97
2022-10-29T20:50:31.761Z,12.99
2022-10-29T21:10:34.231Z,13.02
2022-10-29T21:30:36.672Z,13.00
2022-10-29T21:50:39.212Z,12.96
2022-10-29T22:10:42.427Z,12.99
2022-10-29T22:30:44.867Z,12.96
2022-10-29T22:50:47.584Z,12.72
2022-10-29T23:10:50.055Z,12.15
2022-10-29T23:30:52.749Z,11.70
2022-10-29T23:50:55.337Z,11.80
